Time;durP1;ratioP1;P1;durP2;ratioP2;P2;SDS_P1;SDS_P2;PMS_P1;PMS_P2;Temp;Humidity;BMP_temperature;BMP_pressure;BME280_temperature;BME280_humidity;BME280_pressure;Samples;Min_cycle;Max_cycle;Signal;HPM_P1;HPM_P2
2022/09/23 00:01:13;;;;;;;0.50;0.50;;;11.50;99.90;;;12.21;73.46;100902.31;4991039;28;20627;-67
2022/09/23 00:03:46;;;;;;;0.30;0.27;;;11.40;99.90;;;12.16;74.47;100891.38;4985747;28;20724;-67
2022/09/23 00:06:17;;;;;;;0.30;0.30;;;11.40;99.90;;;12.09;73.97;100892.78;4982346;28;21185;-67
2022/09/23 00:08:44;;;;;;;0.30;0.30;;;11.30;99.90;;;12.13;74.23;100895.06;4990673;28;20643;-67
2022/09/23 00:11:19;;;;;;;0.30;0.30;;;11.30;99.90;;;12.14;74.02;100890.66;4990025;28;21244;-66
2022/09/23 00:13:49;;;;;;;0.30;0.30;;;11.30;99.90;;;12.16;73.83;100892.19;4987968;28;20984;-66
2022/09/23 00:16:21;;;;;;;0.63;0.63;;;11.40;99.90;;;12.13;73.98;100887.22;4990806;28;20692;-66
2022/09/23 00:18:49;;;;;;;0.60;0.60;;;11.40;99.90;;;12.14;74.01;100888.88;4988243;28;20634;-69
2022/09/23 00:21:17;;;;;;;0.30;0.20;;;11.40;99.90;;;12.06;74.02;100893.00;4988891;28;21043;-66
2022/09/23 00:23:44;;;;;;;0.30;0.30;;;11.30;99.90;;;12.06;74.85;100891.22;4989420;28;20630;-67
2022/09/23 00:26:14;;;;;;;0.30;0.30;;;11.30;99.90;;;11.99;74.42;100890.00;4991072;28;20614;-67
2022/09/23 00:28:42;;;;;;;0.30;0.30;;;11.30;99.90;;;12.01;75.14;100892.53;4989641;28;20681;-66
2022/09/23 00:31:15;;;;;;;0.30;0.30;;;11.20;99.90;;;11.91;75.42;100894.13;4991361;28;20622;-67
2022/09/23 00:33:43;;;;;;;0.30;0.20;;;11.20;99.90;;;11.97;75.28;100884.06;4984260;28;20765;-66
2022/09/23 00:36:16;;;;;;;11.60;9.17;;;11.20;99.90;;;11.90;75.17;100893.31;4991073;28;20618;-66
2022/09/23 00:38:44;;;;;;;0.30;0.30;;;11.20;99.90;;;11.99;74.82;100900.47;4989667;28;20634;-68
2022/09/23 00:41:14;;;;;;;0.30;0.23;;;11.20;99.90;;;12.04;73.88;100887.06;4991523;28;20934;-66
2022/09/23 00:43:53;;;;;;;0.30;0.30;;;11.30;99.90;;;11.95;74.13;100891.19;4988314;28;21217;-66
2022/09/23 00:46:32;;;;;;;0.30;0.20;;;11.20;99.90;;;11.97;73.87;100883.25;4990889;28;21043;-67
2022/09/23 00:49:14;;;;;;;0.30;0.20;;;11.20;99.90;;;11.88;74.34;100887.38;4988220;28;20649;-67
2022/09/23 00:51:53;;;;;;;0.60;0.60;;;11.20;99.90;;;11.96;73.64;100886.78;4989790;28;21262;-67
2022/09/23 00:54:23;;;;;;;0.30;0.20;;;11.20;99.90;;;11.86;73.53;100885.81;4985882;28;20678;-66
2022/09/23 00:56:50;;;;;;;0.30;0.30;;;11.20;99.90;;;11.83;73.54;100886.84;4989195;28;20677;-66
2022/09/23 00:59:18;;;;;;;2.30;2.10;;;11.10;99.90;;;11.79;74.01;100877.56;4989890;28;20689;-68
2022/09/23 01:01:48;;;;;;;0.30;0.30;;;11.10;99.90;;;11.74;73.69;100877.06;4976581;28;20660;-67
2022/09/23 01:04:15;;;;;;;0.30;0.30;;;11.00;99.90;;;11.75;74.52;100876.13;4988114;28;20674;-67
2022/09/23 01:06:42;;;;;;;0.30;0.30;;;11.00;99.90;;;11.74;73.91;100876.22;4989321;28;21070;-66
2022/09/23 01:09:09;;;;;;;0.30;0.20;;;11.00;99.90;;;11.80;73.54;100879.22;4989726;28;20639;-67
2022/09/23 01:11:51;;;;;;;0.30;0.20;;;11.00;99.90;;;11.72;75.04;100865.03;4990762;28;20614;-69
2022/09/23 01:14:35;;;;;;;1.60;0.70;;;10.90;99.90;;;11.60;74.91;100864.97;4985298;28;20678;-66
2022/09/23 01:17:36;;;;;;;0.30;0.20;;;10.90;99.90;;;11.61;75.65;100865.78;4990982;28;20642;-67
2022/09/23 01:20:32;;;;;;;0.30;0.23;;;10.90;99.90;;;11.52;75.62;100863.88;4971450;28;20615;-66
2022/09/23 01:23:45;;;;;;;0.30;0.20;;;10.80;99.90;;;11.41;76.46;100858.56;4979770;28;20622;-66
2022/09/23 01:26:39;;;;;;;0.30;0.30;;;10.70;99.90;;;11.41;75.81;100866.41;5005773;28;20636;-67
2022/09/23 01:29:52;;;;;;;0.30;0.30;;;10.70;99.90;;;11.35;76.24;100861.63;4988277;28;20665;-66
2022/09/23 01:32:56;;;;;;;0.50;0.50;;;10.60;99.90;;;11.25;76.81;100860.59;4989975;28;20688;-67
2022/09/23 01:35:51;;;;;;;0.30;0.30;;;10.60;99.90;;;11.16;77.04;100858.66;4991065;28;20706;-67
2022/09/23 01:38:34;;;;;;;0.30;0.30;;;10.50;99.90;;;11.14;77.76;100856.13;4976394;28;20699;-67
2022/09/23 01:41:15;;;;;;;1.00;1.00;;;10.40;99.90;;;11.21;76.68;100856.53;4989703;28;20622;-67
2022/09/23 01:43:56;;;;;;;0.30;0.20;;;10.50;99.90;;;11.15;76.44;100854.34;5002015;28;21298;-67
2022/09/23 01:46:35;;;;;;;0.40;0.40;;;10.40;99.90;;;11.20;76.96;100852.25;4988338;28;20637;-66
2022/09/23 01:49:11;;;;;;;0.30;0.30;;;10.50;99.90;;;11.18;77.37;100852.34;4991396;28;20684;-67
2022/09/23 01:51:45;;;;;;;0.30;0.30;;;10.50;99.90;;;11.04;77.73;100849.03;4985828;28;20649;-66
2022/09/23 01:54:33;;;;;;;0.30;0.20;;;10.40;99.90;;;11.12;77.58;100851.94;4992132;28;21318;-67
2022/09/23 01:57:14;;;;;;;0.40;0.40;;;10.40;99.90;;;10.96;77.95;100852.22;4993513;28;20681;-66
2022/09/23 01:59:48;;;;;;;0.30;0.20;;;10.40;99.90;;;10.86;78.19;100854.59;4985848;28;20633;-66
2022/09/23 02:02:21;;;;;;;0.30;0.30;;;10.30;99.90;;;10.94;77.47;100852.28;4981244;28;21084;-67
2022/09/23 02:04:59;;;;;;;0.30;0.30;;;10.30;99.90;;;10.97;77.74;100853.88;4994250;28;20748;-67
2022/09/23 02:07:56;;;;;;;0.30;0.30;;;10.20;99.90;;;10.99;77.42;100851.97;4981930;28;20625;-66
2022/09/23 02:10:31;;;;;;;0.30;0.20;;;10.20;99.90;;;11.02;77.41;100848.31;4989334;28;20625;-66
2022/09/23 02:13:06;;;;;;;0.30;0.30;;;10.30;99.90;;;11.07;76.77;100854.91;4990690;28;21016;-66
2022/09/23 02:15:43;;;;;;;0.30;0.30;;;10.30;99.90;;;11.01;77.61;100849.28;4976739;28;20652;-66
2022/09/23 02:18:19;;;;;;;0.30;0.30;;;10.30;99.90;;;10.89;77.63;100849.19;4990040;28;20641;-65
2022/09/23 02:20:49;;;;;;;0.87;0.87;;;10.30;99.90;;;11.00;77.25;100847.59;4978809;28;20650;-66
2022/09/23 02:23:26;;;;;;;0.30;0.30;;;10.30;99.90;;;11.06;77.65;100842.78;4982465;28;20674;-67
2022/09/23 02:26:28;;;;;;;0.30;0.30;;;10.30;99.90;;;11.01;76.65;100850.09;4990913;28;20661;-67
2022/09/23 02:29:28;;;;;;;0.30;0.20;;;10.30;99.90;;;10.80;78.12;100835.94;4992435;28;20609;-66
2022/09/23 02:32:20;;;;;;;0.30;0.20;;;10.20;99.90;;;10.86;77.44;100838.13;4977383;28;20696;-67
2022/09/23 02:34:58;;;;;;;0.30;0.30;;;10.10;99.90;;;10.85;77.92;100839.91;4988971;28;20685;-67
2022/09/23 02:37:47;;;;;;;0.30;0.30;;;10.10;99.90;;;10.78;78.35;100843.88;4991003;28;20645;-68
2022/09/23 02:40:30;;;;;;;0.50;0.50;;;10.10;99.90;;;10.83;78.14;100840.94;4991016;28;21114;-68
2022/09/23 02:43:13;;;;;;;0.30;0.30;;;10.10;99.90;;;10.82;77.97;100844.50;4989518;28;20680;-67
2022/09/23 02:45:40;;;;;;;0.30;0.30;;;10.10;99.90;;;10.70;78.22;100830.53;4992879;28;21003;-66
2022/09/23 02:48:40;;;;;;;0.30;0.20;;;10.10;99.90;;;10.78;78.71;100836.03;4984353;28;21280;-66
2022/09/23 02:51:08;;;;;;;0.30;0.20;;;10.00;99.90;;;10.77;77.97;100825.72;4988065;28;20637;-66
2022/09/23 02:53:36;;;;;;;0.30;0.20;;;10.10;99.90;;;10.76;77.46;100826.66;4986893;28;20669;-66
2022/09/23 02:56:15;;;;;;;0.30;0.20;;;10.00;99.90;;;10.72;77.55;100822.59;4991781;28;21049;-66
2022/09/23 02:58:42;;;;;;;0.30;0.30;;;10.00;99.90;;;10.80;76.87;100821.09;4992219;28;20629;-68
2022/09/23 03:01:44;;;;;;;0.30;0.30;;;10.00;99.90;;;10.74;77.82;100811.09;4994020;28;20614;-66
2022/09/23 03:04:59;;;;;;;0.30;0.30;;;10.00;99.90;;;10.76;77.12;100817.06;4975112;28;20716;-67
2022/09/23 03:07:58;;;;;;;0.30;0.30;;;10.00;99.90;;;10.74;77.67;100811.09;5012534;23;20766;-66
2022/09/23 03:10:39;;;;;;;2.10;2.00;;;10.00;99.90;;;10.66;77.84;100816.03;5015285;28;20629;-65
2022/09/23 03:13:38;;;;;;;0.30;0.23;;;9.90;99.90;;;10.78;77.68;100816.94;4993274;28;20644;-66
2022/09/23 03:16:19;;;;;;;0.30;0.20;;;10.00;99.90;;;10.73;78.35;100819.84;5010236;28;20638;-66
2022/09/23 03:18:58;;;;;;;0.30;0.30;;;10.00;99.90;;;10.62;78.75;100817.19;4994231;28;20635;-66
2022/09/23 03:21:38;;;;;;;0.30;0.20;;;9.90;99.90;;;10.61;78.71;100809.44;4989478;28;20628;-66
2022/09/23 03:24:08;;;;;;;0.30;0.20;;;9.90;99.90;;;10.70;78.11;100816.63;4992377;28;20660;-65
2022/09/23 03:26:38;;;;;;;0.30;0.20;;;9.90;99.90;;;10.50;78.40;100812.78;4978468;28;20665;-67
2022/09/23 03:29:10;;;;;;;0.30;0.20;;;9.80;99.90;;;10.50;78.46;100811.97;4991640;28;20617;-66
2022/09/23 03:31:38;;;;;;;0.30;0.20;;;9.80;99.90;;;10.52;78.75;100812.72;4991868;28;20617;-67
2022/09/23 03:34:20;;;;;;;0.30;0.30;;;9.80;99.90;;;10.56;78.05;100812.34;4973783;28;20708;-66
2022/09/23 03:37:09;;;;;;;0.30;0.30;;;9.80;99.90;;;10.60;78.79;100813.84;4978594;28;20648;-66
2022/09/23 03:39:47;;;;;;;0.30;0.30;;;9.80;99.90;;;10.44;78.50;100810.59;4970991;28;21177;-66
2022/09/23 03:42:25;;;;;;;0.30;0.20;;;9.80;99.90;;;10.49;78.56;100816.34;4955192;28;20666;-66
2022/09/23 03:44:56;;;;;;;0.30;0.30;;;9.70;99.90;;;10.37;78.91;100803.31;4972449;28;20609;-66
2022/09/23 03:47:25;;;;;;;0.30;0.30;;;9.70;99.90;;;10.39;79.03;100798.84;4972509;28;20652;-65
2022/09/23 03:49:53;;;;;;;0.30;0.30;;;9.70;99.90;;;10.40;78.19;100803.09;4996613;28;20663;-65
2022/09/23 03:52:23;;;;;;;0.30;0.30;;;9.70;99.90;;;10.37;78.47;100801.53;5002374;28;20621;-66
2022/09/23 03:54:51;;;;;;;0.40;0.40;;;9.60;99.90;;;10.45;78.60;100801.84;4998822;28;20666;-66
2022/09/23 03:57:22;;;;;;;0.63;0.63;;;9.60;99.90;;;10.48;78.34;100799.00;5003837;28;21052;-65
2022/09/23 03:59:50;;;;;;;0.30;0.20;;;9.60;99.90;;;10.48;78.63;100796.41;4996970;28;20641;-66
2022/09/23 04:02:18;;;;;;;0.30;0.30;;;9.70;99.90;;;10.50;77.85;100797.13;4991177;28;20621;-66
2022/09/23 04:04:46;;;;;;;0.30;0.30;;;9.70;99.90;;;10.55;77.79;100795.06;4989214;28;20640;-66
2022/09/23 04:07:13;;;;;;;0.30;0.23;;;9.70;99.90;;;10.53;77.30;100796.94;4996048;28;20707;-65
2022/09/23 04:09:40;;;;;;;0.50;0.50;;;9.70;99.90;;;10.50;77.41;100801.53;4981666;28;20656;-66
2022/09/23 04:12:13;;;;;;;0.33;0.33;;;9.70;99.90;;;10.53;77.72;100794.31;4991296;28;21231;-65
2022/09/23 04:14:41;;;;;;;0.30;0.30;;;9.70;99.90;;;10.48;77.74;100793.81;4990703;28;20664;-66
2022/09/23 04:17:08;;;;;;;0.30;0.20;;;9.70;99.90;;;10.50;77.75;100793.72;4991225;28;20731;-66
2022/09/23 04:19:35;;;;;;;0.30;0.20;;;9.70;99.90;;;10.45;77.09;100794.03;4994235;28;20648;-65
2022/09/23 04:22:03;;;;;;;0.30;0.30;;;9.70;99.90;;;10.38;77.77;100795.38;5009738;28;21117;-65
2022/09/23 04:24:30;;;;;;;0.30;0.30;;;9.60;99.90;;;10.47;78.19;100801.75;4991927;28;20705;-66
2022/09/23 04:26:57;;;;;;;0.30;0.20;;;9.60;99.90;;;10.40;77.76;100793.50;4990732;28;20666;-67
2022/09/23 04:29:25;;;;;;;0.30;0.20;;;9.60;99.90;;;10.47;77.51;100801.75;4990983;28;20624;-66
2022/09/23 04:31:53;;;;;;;0.30;0.20;;;9.70;99.90;;;10.37;77.59;100795.50;4972711;28;20723;-66
2022/09/23 04:34:20;;;;;;;0.30;0.30;;;9.60;99.90;;;10.36;78.13;100799.88;4990560;28;20721;-66
2022/09/23 04:36:47;;;;;;;0.30;0.20;;;9.60;99.90;;;10.36;77.70;100797.25;4994029;28;20647;-66
2022/09/23 04:39:16;;;;;;;0.30;0.20;;;9.60;99.90;;;10.39;77.19;100799.63;4977088;28;20639;-66
2022/09/23 04:41:44;;;;;;;0.30;0.20;;;9.60;99.90;;;10.29;78.03;100802.97;4990895;28;20656;-66
2022/09/23 04:44:12;;;;;;;0.30;0.20;;;9.50;99.90;;;10.32;78.22;100803.63;5005470;28;20628;-66
2022/09/23 04:46:46;;;;;;;0.30;0.30;;;9.50;99.90;;;10.26;78.30;100806.66;4990687;28;20653;-66
2022/09/23 04:49:14;;;;;;;0.30;0.20;;;9.50;99.90;;;10.28;78.19;100804.78;4993301;28;20638;-66
2022/09/23 04:51:42;;;;;;;0.30;0.30;;;9.50;99.90;;;10.35;77.78;100807.81;4994935;28;21066;-66
2022/09/23 04:54:11;;;;;;;0.30;0.20;;;9.50;99.90;;;10.14;79.07;100804.84;4993853;28;20674;-66
2022/09/23 04:56:38;;;;;;;0.30;0.20;;;9.50;99.90;;;10.14;78.85;100799.63;4999465;28;20670;-65
2022/09/23 04:59:06;;;;;;;0.30;0.20;;;9.50;99.90;;;10.10;78.76;100804.25;4990358;28;20620;-66
2022/09/23 05:01:35;;;;;;;0.30;0.30;;;9.50;99.90;;;10.12;79.20;100809.34;4989725;28;21199;-66
2022/09/23 05:04:05;;;;;;;0.30;0.20;;;9.50;99.90;;;10.20;79.14;100799.22;4989862;28;20631;-65
2022/09/23 05:06:33;;;;;;;0.30;0.20;;;9.50;99.90;;;10.26;78.88;100801.44;4995035;28;20666;-65
2022/09/23 05:09:03;;;;;;;0.30;0.20;;;9.60;99.90;;;10.27;78.85;100799.66;4992779;28;21272;-65
2022/09/23 05:11:30;;;;;;;4.17;3.80;;;9.60;99.90;;;10.21;78.93;100795.69;4989785;28;20719;-66
2022/09/23 05:13:57;;;;;;;0.30;0.20;;;9.60;99.90;;;10.39;78.22;100799.63;5006192;28;20664;-65
2022/09/23 05:16:25;;;;;;;0.30;0.20;;;9.70;99.90;;;10.36;78.48;100810.31;4977237;28;20657;-66
2022/09/23 05:18:53;;;;;;;0.30;0.20;;;9.70;99.90;;;10.39;77.90;100802.25;5002494;28;20616;-66
2022/09/23 05:21:23;;;;;;;0.30;0.30;;;9.80;99.90;;;10.53;77.98;100809.97;5001415;28;20632;-65
2022/09/23 05:23:53;;;;;;;0.30;0.20;;;9.80;99.90;;;10.64;77.71;100809.25;4993787;28;20693;-66
2022/09/23 05:26:24;;;;;;;0.43;0.43;;;9.90;99.90;;;10.60;77.23;100813.84;4995177;28;20640;-66
2022/09/23 05:28:52;;;;;;;0.30;0.20;;;9.90;99.90;;;10.81;76.79;100807.13;5009304;28;20620;-66
2022/09/23 05:31:22;;;;;;;0.30;0.20;;;10.00;99.90;;;10.88;76.75;100808.34;4995389;28;20641;-66
2022/09/23 05:33:54;;;;;;;0.30;0.20;;;10.10;99.90;;;11.12;75.31;100811.00;5000452;28;20691;-64
2022/09/23 05:36:22;;;;;;;0.30;0.20;;;10.20;99.90;;;11.50;73.80;100816.06;4981452;28;21291;-66
2022/09/23 05:38:50;;;;;;;0.30;0.30;;;10.40;99.90;;;11.92;72.21;100812.97;5006190;28;20633;-67
2022/09/23 05:41:21;;;;;;;0.30;0.30;;;10.70;99.90;;;12.27;70.91;100824.22;4996617;28;20712;-66
2022/09/23 05:43:53;;;;;;;0.30;0.20;;;11.00;99.90;;;12.73;70.01;100831.16;5005033;28;20640;-66
2022/09/23 05:46:23;;;;;;;0.30;0.30;;;11.50;99.90;;;12.99;68.03;100830.78;5007230;28;20667;-65
2022/09/23 05:48:51;;;;;;;3.43;2.53;;;11.80;99.90;;;13.11;66.61;100821.16;4997665;28;20677;-64
2022/09/23 05:51:20;;;;;;;1.63;1.23;;;12.00;99.90;;;13.22;66.35;100821.16;4991096;28;20637;-65
2022/09/23 05:53:50;;;;;;;0.30;0.30;;;12.00;99.90;;;13.33;65.94;100815.06;4995275;28;20634;-66
2022/09/23 05:56:20;;;;;;;1.90;1.60;;;12.10;99.90;;;13.26;66.40;100819.94;5000939;28;21056;-66
2022/09/23 05:58:54;;;;;;;0.30;0.30;;;12.10;99.90;;;13.61;65.02;100820.53;4993115;28;20615;-65
2022/09/23 06:01:24;;;;;;;0.30;0.30;;;12.40;99.90;;;13.79;64.30;100820.84;4975387;28;20638;-65
2022/09/23 06:03:53;;;;;;;0.30;0.20;;;12.60;99.90;;;14.07;63.12;100820.22;4993000;28;20661;-66
2022/09/23 06:06:27;;;;;;;0.30;0.20;;;12.70;99.90;;;14.62;61.51;100827.75;4986750;28;20638;-66
2022/09/23 06:08:55;;;;;;;0.40;0.40;;;13.10;99.90;;;15.15;59.79;100830.16;4990304;28;21058;-66
2022/09/23 06:11:22;;;;;;;0.30;0.20;;;13.50;99.90;;;15.50;59.39;100823.47;4976707;28;20677;-66
2022/09/23 06:13:54;;;;;;;0.30;0.30;;;13.90;99.90;;;15.38;58.44;100818.44;4975257;28;21302;-65
2022/09/23 06:16:21;;;;;;;0.30;0.30;;;14.00;99.90;;;15.26;59.33;100819.53;4987744;28;20722;-66
2022/09/23 06:18:48;;;;;;;0.30;0.30;;;14.00;99.90;;;15.72;57.60;100818.91;4993557;28;20622;-66
2022/09/23 06:21:17;;;;;;;0.90;0.87;;;14.20;99.90;;;16.38;56.76;100812.72;4993891;28;20716;-65
2022/09/23 06:23:45;;;;;;;0.30;0.30;;;14.60;99.90;;;16.68;55.00;100811.69;4992543;28;20634;-66
2022/09/23 06:26:15;;;;;;;0.30;0.30;;;14.90;99.90;;;16.43;55.49;100817.56;4988772;28;20627;-66
2022/09/23 06:28:44;;;;;;;0.30;0.30;;;14.90;99.90;;;15.90;56.20;100810.19;4969870;28;20676;-65
2022/09/23 06:31:15;;;;;;;0.30;0.30;;;14.70;99.90;;;15.84;56.69;100809.91;4986003;28;20591;-65
2022/09/23 06:33:44;;;;;;;0.93;0.70;;;14.60;99.90;;;15.71;57.49;100812.84;4960335;28;20675;-65
2022/09/23 06:36:13;;;;;;;0.30;0.30;;;14.60;99.90;;;15.45;57.83;100812.53;4992942;28;20708;-66
2022/09/23 06:39:01;;;;;;;0.30;0.30;;;14.50;99.90;;;15.28;58.27;100813.19;4958445;28;20638;-65
2022/09/23 06:41:28;;;;;;;1.27;1.17;;;14.30;99.90;;;15.18;59.04;100814.94;4976361;28;20643;-66
2022/09/23 06:43:55;;;;;;;0.30;0.20;;;14.20;99.90;;;15.12;59.34;100812.03;5001344;28;20716;-65
2022/09/23 06:46:22;;;;;;;1.13;1.13;;;14.10;99.90;;;15.19;59.28;100819.25;4998821;28;20720;-64
2022/09/23 06:48:49;;;;;;;0.30;0.30;;;14.00;99.90;;;15.31;59.59;100815.50;4992299;28;20669;-65
2022/09/23 06:51:20;;;;;;;0.30;0.30;;;14.10;99.90;;;15.47;58.79;100813.22;4992696;28;20614;-65
2022/09/23 06:53:48;;;;;;;0.30;0.20;;;14.20;99.90;;;15.58;58.77;100816.69;4985838;28;20633;-65
2022/09/23 06:56:18;;;;;;;0.30;0.20;;;14.30;99.90;;;15.70;58.10;100821.69;4975667;28;20671;-65
2022/09/23 06:58:45;;;;;;;0.30;0.30;;;14.40;99.90;;;15.92;57.89;100815.31;4991972;28;21088;-65
2022/09/23 07:01:15;;;;;;;0.30;0.30;;;14.60;99.90;;;16.05;57.13;100821.94;4962458;28;21053;-65
2022/09/23 07:03:44;;;;;;;0.30;0.30;;;14.80;99.90;;;16.26;56.04;100821.75;4989160;28;20635;-66
2022/09/23 07:06:11;;;;;;;0.30;0.30;;;14.90;99.90;;;16.19;55.98;100821.50;4991310;28;21221;-66
2022/09/23 07:08:41;;;;;;;0.30;0.30;;;14.90;99.90;;;16.26;56.25;100830.50;5009375;28;20614;-65
2022/09/23 07:11:12;;;;;;;0.30;0.30;;;15.00;99.90;;;16.56;55.81;100818.94;4990517;28;20669;-66
2022/09/23 07:13:40;;;;;;;0.30;0.30;;;15.20;99.90;;;17.02;54.33;100826.78;4992900;28;20645;-65
2022/09/23 07:16:08;;;;;;;2.40;2.00;;;15.50;99.90;;;17.34;52.81;100823.69;4990103;28;20716;-66
2022/09/23 07:18:36;;;;;;;0.33;0.33;;;15.80;99.90;;;17.84;51.98;100816.13;4991602;28;20618;-64
2022/09/23 07:21:13;;;;;;;0.30;0.30;;;16.00;99.90;;;18.33;50.74;100820.78;4991355;28;20642;-66
2022/09/23 07:23:43;;;;;;;0.83;0.83;;;16.40;99.90;;;18.89;49.19;100827.38;4992743;28;20623;-65
2022/09/23 07:26:10;;;;;;;0.30;0.30;;;16.90;99.90;;;19.30;47.45;100823.88;4993125;28;20614;-66
2022/09/23 07:28:38;;;;;;;0.30;0.30;;;17.30;99.90;;;19.47;46.92;100827.41;4992484;28;20639;-66
2022/09/23 07:31:12;;;;;;;0.30;0.30;;;17.60;99.90;;;19.94;45.96;100831.94;4991260;28;21325;-66
2022/09/23 07:33:42;;;;;;;0.30;0.30;;;18.00;99.90;;;20.55;44.46;100825.28;4992439;28;21414;-66
2022/09/23 07:36:17;;;;;;;2.47;1.03;;;18.40;99.00;;;21.16;43.26;100828.06;4991668;28;20698;-65
2022/09/23 07:38:45;;;;;;;0.30;0.30;;;18.90;97.90;;;21.57;42.27;100829.44;5009587;28;20630;-65
2022/09/23 07:41:16;;;;;;;0.30;0.30;;;19.40;96.80;;;22.28;40.56;100833.56;4993146;28;21248;-66
2022/09/23 07:43:45;;;;;;;0.30;0.30;;;19.90;95.30;;;23.06;38.68;100832.03;4992280;28;20611;-66
2022/09/23 07:46:16;;;;;;;0.30;0.30;;;20.50;93.70;;;23.85;37.17;100835.59;4995526;28;20642;-65
2022/09/23 07:48:44;;;;;;;0.67;0.60;;;21.10;92.10;;;24.41;36.53;100831.97;4994493;28;20646;-66
2022/09/23 07:51:19;;;;;;;0.30;0.30;;;21.70;91.00;;;24.72;35.53;100833.38;4977727;28;20644;-66
2022/09/23 07:53:48;;;;;;;0.30;0.30;;;22.20;87.60;;;25.29;34.48;100836.53;4995038;28;21063;-66
2022/09/23 07:56:17;;;;;;;0.30;0.30;;;22.80;84.80;;;26.25;33.12;100836.13;4990357;28;20725;-63
2022/09/23 07:58:58;;;;;;;0.40;0.40;;;23.50;81.60;;;26.96;32.10;100831.63;4991904;28;20697;-64
2022/09/23 08:01:28;;;;;;;0.53;0.53;;;24.00;78.40;;;27.30;31.37;100833.16;4991301;28;20709;-64
2022/09/23 08:03:57;;;;;;;0.30;0.30;;;24.50;75.60;;;27.22;31.13;100836.06;4989970;28;20639;-66
2022/09/23 08:06:25;;;;;;;2.30;1.57;;;24.70;73.20;;;27.37;31.06;100845.50;4991171;28;20701;-64
2022/09/23 08:08:52;;;;;;;0.50;0.50;;;24.80;72.10;;;27.49;31.01;100851.03;4992730;28;20639;-65
2022/09/23 08:11:19;;;;;;;0.40;0.40;;;24.90;70.80;;;27.34;31.13;100845.09;4991727;28;20664;-66
2022/09/23 08:13:46;;;;;;;0.73;0.73;;;24.70;69.80;;;27.10;31.28;100843.13;4990313;28;20670;-65
2022/09/23 08:16:13;;;;;;;0.30;0.30;;;24.40;70.00;;;27.59;30.73;100854.03;4973551;28;20678;-66
2022/09/23 08:18:44;;;;;;;0.30;0.30;;;24.60;69.70;;;28.94;29.33;100846.09;4989506;28;21271;-63
2022/09/23 08:21:11;;;;;;;0.30;0.30;;;25.30;68.30;;;30.12;27.49;100849.81;4976102;28;20694;-65
2022/09/23 08:23:38;;;;;;;0.30;0.30;;;26.10;66.80;;;30.95;26.63;100848.53;4988962;28;20627;-66
2022/09/23 08:26:06;;;;;;;0.30;0.30;;;26.70;64.90;;;30.84;26.33;100840.44;4991012;28;21104;-63
2022/09/23 08:28:44;;;;;;;0.30;0.30;;;26.90;63.30;;;31.07;26.58;100835.03;4990539;28;20627;-62
2022/09/23 08:31:14;;;;;;;0.30;0.30;;;27.20;62.50;;;31.39;25.77;100846.97;4995141;28;21027;-63
2022/09/23 08:33:41;;;;;;;0.30;0.30;;;27.40;61.30;;;32.14;25.04;100844.81;4980904;28;20819;-64
2022/09/23 08:36:08;;;;;;;0.40;0.30;;;27.90;60.60;;;33.23;24.01;100835.78;4994124;28;20645;-63
2022/09/23 08:38:34;;;;;;;0.30;0.30;;;28.60;59.30;;;34.09;22.95;100837.47;5009412;28;20671;-63
2022/09/23 08:41:27;;;;;;;0.40;0.40;;;29.10;58.20;;;34.73;22.18;100835.44;4991102;28;20693;-63
2022/09/23 08:44:01;;;;;;;0.30;0.30;;;29.60;56.10;;;36.08;20.83;100839.56;5004699;28;20610;-62
2022/09/23 08:46:39;;;;;;;0.30;0.30;;;30.50;55.00;;;38.00;18.98;100839.50;4999524;28;20649;-64
2022/09/23 08:49:08;;;;;;;0.60;0.60;;;31.70;53.00;;;38.64;18.44;100845.41;4977858;28;20635;-63
2022/09/23 08:51:45;;;;;;;0.30;0.30;;;32.40;50.80;;;39.71;17.38;100839.34;4988098;28;20676;-62
2022/09/23 08:54:15;;;;;;;0.30;0.30;;;33.30;49.50;;;39.69;17.55;100827.91;4953039;28;20674;-64
2022/09/23 08:56:47;;;;;;;0.30;0.30;;;33.50;48.40;;;40.60;17.10;100841.56;5005732;28;20733;-63
2022/09/23 08:59:21;;;;;;;0.30;0.30;;;34.10;47.60;;;40.63;16.75;100831.94;4973388;28;20602;-63
2022/09/23 09:01:57;;;;;;;0.40;0.40;;;34.40;46.30;;;40.66;17.21;100836.78;4990857;28;20625;-66
2022/09/23 09:04:49;;;;;;;0.43;0.43;;;34.90;45.80;;;42.31;16.01;100834.84;4965333;28;20619;-63
2022/09/23 09:07:28;;;;;;;0.40;0.40;;;35.80;45.00;;;43.01;14.80;100834.75;4985761;23;20692;-63
2022/09/23 09:10:15;;;;;;;0.40;0.40;;;36.40;43.80;;;44.13;14.40;100824.50;4975104;28;20621;-63
2022/09/23 09:13:00;;;;;;;0.40;0.40;;;36.90;43.10;;;44.50;14.56;100826.47;4984901;28;20637;-64
2022/09/23 09:15:27;;;;;;;0.50;0.50;;;37.30;42.20;;;44.73;13.85;100821.47;5003249;28;20669;-63
2022/09/23 09:18:06;;;;;;;0.40;0.40;;;37.60;41.60;;;45.04;13.54;100821.94;5013061;28;20664;-63
2022/09/23 09:21:08;;;;;;;0.97;0.97;;;37.90;41.20;;;43.48;14.26;100808.28;5008248;28;20641;-63
2022/09/23 09:23:57;;;;;;;1.03;1.03;;;37.20;41.10;;;45.00;13.71;100801.69;4988886;28;20672;-63
2022/09/23 09:26:32;;;;;;;0.50;0.50;;;37.70;41.00;;;45.92;12.75;100808.66;5003872;28;20657;-63
2022/09/23 09:29:27;;;;;;;0.40;0.40;;;38.30;40.40;;;46.18;12.84;100800.06;5002686;28;20676;-64
2022/09/23 09:32:32;;;;;;;0.40;0.40;;;38.60;39.70;;;46.24;12.42;100798.69;4998725;28;20633;-65
2022/09/23 09:35:19;;;;;;;0.40;0.40;;;38.90;39.30;;;46.78;12.70;100797.31;4987055;28;20619;-65
2022/09/23 09:37:47;;;;;;;0.60;0.60;;;39.30;39.10;;;47.02;12.28;100799.25;4998565;28;20723;-63
2022/09/23 09:40:15;;;;;;;1.00;0.97;;;39.60;38.60;;;47.27;11.84;100799.94;4990772;28;20672;-64
2022/09/23 09:42:48;;;;;;;0.40;0.40;;;39.90;38.30;;;47.53;11.62;100790.06;4998097;28;20756;-64
2022/09/23 09:45:52;;;;;;;0.40;0.40;;;40.20;38.00;;;47.37;12.01;100788.38;4993761;28;20637;-64
2022/09/23 09:48:58;;;;;;;0.40;0.40;;;40.10;37.90;;;46.48;12.37;100779.41;4992863;28;20744;-63
2022/09/23 09:51:28;;;;;;;2.40;2.30;;;39.70;37.70;;;46.97;11.75;100779.31;4993164;28;20753;-63
2022/09/23 09:54:22;;;;;;;0.40;0.40;;;39.90;37.50;;;47.43;11.45;100771.22;5010120;28;20625;-63
2022/09/23 09:56:50;;;;;;;0.40;0.40;;;40.00;37.20;;;46.46;12.09;100758.81;4991962;28;21393;-66
2022/09/23 09:59:26;;;;;;;0.40;0.40;;;39.50;37.50;;;44.97;13.10;100754.75;4990105;28;20748;-64
2022/09/23 10:02:28;;;;;;;1.47;1.37;;;38.30;37.80;;;41.48;15.39;100741.63;4995784;28;20679;-64
2022/09/23 10:05:02;;;;;;;0.40;0.40;;;37.10;37.20;;;42.96;14.42;100738.00;4988835;28;20626;-63
2022/09/23 10:07:32;;;;;;;0.40;0.40;;;36.90;38.20;;;45.34;12.94;100745.53;4992562;28;20645;-64
2022/09/23 10:10:24;;;;;;;0.80;0.80;;;38.00;38.10;;;46.01;12.28;100751.44;5002776;28;21259;-63
2022/09/23 10:13:15;;;;;;;0.40;0.40;;;38.60;37.80;;;45.87;13.09;100744.63;5004565;28;20725;-62
2022/09/23 10:15:43;;;;;;;0.40;0.40;;;38.60;37.90;;;44.50;13.32;100748.59;5012199;28;20727;-63
2022/09/23 10:18:36;;;;;;;0.40;0.40;;;38.50;37.70;;;44.20;13.89;100744.22;5015020;28;20761;-62
2022/09/23 10:21:13;;;;;;;0.50;0.50;;;37.60;38.40;;;43.69;14.10;100740.53;4996907;28;20649;-63
2022/09/23 10:23:44;;;;;;;0.40;0.40;;;37.30;38.60;;;41.85;15.16;100727.50;4993664;28;20628;-63
2022/09/23 10:26:16;;;;;;;0.40;0.40;;;36.00;39.40;;;39.56;16.93;100725.72;5005303;28;21192;-61
2022/09/23 10:28:51;;;;;;;0.40;0.40;;;34.70;40.00;;;39.14;17.04;100725.84;5008668;28;20702;-61
2022/09/23 10:31:26;;;;;;;0.40;0.30;;;34.30;40.70;;;36.93;19.54;100708.00;5013050;28;20620;-61
2022/09/23 10:33:56;;;;;;;0.40;0.30;;;33.10;42.00;;;35.16;20.90;100712.22;5011652;28;21105;-61
2022/09/23 10:36:23;;;;;;;0.40;0.30;;;32.00;42.90;;;33.16;22.94;100705.38;5009368;28;21290;-62
2022/09/23 10:46:36;;;;;;;0.43;0.40;;;30.60;44.10;;;29.99;26.38;100696.66;5011905;28;20613;-63
2022/09/23 10:48:26;;;;;;;0.50;0.50;;;25.40;50.30;;;24.84;34.72;100680.53;5011397;28;21012;-63
2022/09/23 10:50:54;;;;;;;0.40;0.30;;;24.20;52.70;;;23.70;36.56;100689.13;5014620;28;20622;-62